Private Wetterstation Wechselburg
Wetterdaten: Sonntag, 05.10.2014
Datum Zeit Temp. +2m Bodentemp. Temp.+5cm Temp. Wind Windchill X Diff Temp. Feuchte +2m Feuchte +5cm Sonnenschein Luftdruck Regen Wind Richtung Richtung Sonnenschein UV Taupunkt Windchill Windben
05.10.2014 00:00 6,9 C 26,0 C 7,9 C 6,8 C 6,6 C 0,0 C 87 % 89 % 0 % 1020,3 hPa 0,0 l/m 0,0 km/h (0 Bft) W-SW 247 0 min 0,0 UV-I 4,9 C 6,6 C 0,0 km/h (0 Bft)
05.10.2014 00:05 6,9 C 26,0 C 7,8 C 6,8 C 6,5 C 0,0 C 87 % 89 % 0 % 1020,3 hPa 0,0 l/m 0,0 km/h (0 Bft) W-SW 247 0 min 0,0 UV-I 4,9 C 6,5 C 0,0 km/h (0 Bft)
05.10.2014 00:10 6,7 C 26,0 C 7,8 C 6,6 C 6,3 C 0,0 C 87 % 89 % 0 % 1020,4 hPa 0,0 l/m 0,0 km/h (0 Bft) O 90 0 min 0,0 UV-I 4,7 C 6,3 C 0,0 km/h (0 Bft)
05.10.2014 00:15 6,7 C 26,0 C 7,7 C 6,6 C 6,4 C 0,0 C 87 % 89 % 0 % 1020,4 hPa 0,0 l/m 0,0 km/h (0 Bft) O-NO 67 0 min 0,0 UV-I 4,7 C 6,4 C 0,0 km/h (0 Bft)
05.10.2014 00:20 6,5 C 26,0 C 7,7 C 6,5 C 6,5 C 0,0 C 87 % 89 % 0 % 1020,4 hPa 0,0 l/m 0,0 km/h (0 Bft) O-NO 67 0 min 0,0 UV-I 4,5 C 6,5 C 0,0 km/h (0 Bft)
05.10.2014 00:25 6,4 C 26,0 C 7,6 C 6,4 C 6,4 C 0,0 C 87 % 89 % 0 % 1020,4 hPa 0,0 l/m 0,0 km/h (0 Bft) O-NO 67 0 min 0,0 UV-I 4,4 C 6,4 C 0,0 km/h (0 Bft)
05.10.2014 00:30 6,3 C 26,0 C 7,6 C 6,3 C 6,3 C 0,0 C 87 % 89 % 0 % 1020,3 hPa 0,0 l/m 0,0 km/h (0 Bft) O-NO 67 0 min 0,0 UV-I 4,3 C 6,3 C 0,0 km/h (0 Bft)
05.10.2014 00:35 6,3 C 26,0 C 7,6 C 6,3 C 6,3 C 0,0 C 87 % 89 % 0 % 1020,3 hPa 0,0 l/m 0,0 km/h (0 Bft) O-NO 67 0 min 0,0 UV-I 4,3 C 6,3 C 0,0 km/h (0 Bft)
05.10.2014 00:41 6,3 C 26,0 C 7,6 C 6,4 C 6,4 C 0,1 C 88 % 89 % 0 % 1020,3 hPa 0,0 l/m 0,0 km/h (0 Bft) N 0 0 min 0,0 UV-I 4,5 C 6,4 C 0,0 km/h (0 Bft)
05.10.2014 00:45 6,3 C 26,0 C 7,6 C 6,4 C 6,4 C 0,1 C 88 % 89 % 0 % 1020,3 hPa 0,0 l/m 0,0 km/h (0 Bft) O-NO 67 0 min 0,0 UV-I 4,5 C 6,4 C 0,0 km/h (0 Bft)
05.10.2014 00:50 6,3 C 26,0 C 7,5 C 6,3 C 6,3 C 0,0 C 88 % 90 % 0 % 1020,3 hPa 0,0 l/m 0,0 km/h (0 Bft) O-NO 67 0 min 0,0 UV-I 4,5 C 6,3 C 0,0 km/h (0 Bft)
05.10.2014 00:55 6,1 C 26,0 C 7,5 C 6,2 C 6,2 C 0,1 C 88 % 90 % 0 % 1020,3 hPa 0,0 l/m 0,0 km/h (0 Bft) W 270 0 min 0,0 UV-I 4,3 C 6,2 C 0,0 km/h (0 Bft)
05.10.2014 01:00 6,1 C 26,0 C 7,3 C 6,1 C 6,1 C 0,0 C 88 % 89 % 0 % 1020,3 hPa 0,0 l/m 0,0 km/h (0 Bft) O-NO 67 0 min 0,0 UV-I 4,3 C 6,1 C 0,0 km/h (0 Bft)
05.10.2014 01:05 6,1 C 26,0 C 7,4 C 6,2 C 6,2 C 0,1 C 88 % 90 % 0 % 1020,3 hPa 0,0 l/m 0,0 km/h (0 Bft) O 90 0 min 0,0 UV-I 4,3 C 6,2 C 0,0 km/h (0 Bft)
05.10.2014 01:10 6,0 C 26,0 C 7,3 C 6,1 C 6,1 C 0,1 C 88 % 90 % 0 % 1020,5 hPa 0,0 l/m 0,0 km/h (0 Bft) O-NO 67 0 min 0,0 UV-I 4,2 C 6,1 C 0,0 km/h (0 Bft)
05.10.2014 01:15 5,9 C 26,0 C 7,2 C 6,1 C 6,1 C 0,2 C 88 % 90 % 0 % 1020,5 hPa 0,0 l/m 0,0 km/h (0 Bft) O-NO 67 0 min 0,0 UV-I 4,1 C 6,1 C 0,0 km/h (0 Bft)
05.10.2014 01:20 5,9 C 26,0 C 7,3 C 6,1 C 6,1 C 0,2 C 88 % 90 % 0 % 1020,5 hPa 0,0 l/m 0,0 km/h (0 Bft) O 90 0 min 0,0 UV-I 4,1 C 6,1 C 0,0 km/h (0 Bft)
05.10.2014 01:25 5,9 C 26,0 C 7,3 C 5,9 C 5,9 C 0,0 C 88 % 90 % 0 % 1020,5 hPa 0,0 l/m 0,0 km/h (0 Bft) W-SW 247 0 min 0,0 UV-I 4,1 C 5,9 C 0,0 km/h (0 Bft)
05.10.2014 01:30 5,7 C 26,0 C 7,3 C 5,8 C 5,8 C 0,1 C 88 % 90 % 0 % 1020,4 hPa 0,0 l/m 0,0 km/h (0 Bft) SO 135 0 min 0,0 UV-I 3,9 C 5,8 C 0,0 km/h (0 Bft)
05.10.2014 01:35 5,6 C 26,0 C 7,2 C 5,8 C 5,8 C 0,2 C 88 % 90 % 0 % 1020,4 hPa 0,0 l/m 0,0 km/h (0 Bft) SO 135 0 min 0,0 UV-I 3,8 C 5,8 C 0,0 km/h (0 Bft)
05.10.2014 01:40 5,7 C 26,0 C 7,1 C 5,8 C 5,8 C 0,1 C 88 % 90 % 0 % 1020,4 hPa 0,0 l/m 0,0 km/h (0 Bft) SO 135 0 min 0,0 UV-I 3,9 C 5,8 C 0,0 km/h (0 Bft)
05.10.2014 01:45 5,5 C 26,0 C 7,1 C 5,7 C 5,7 C 0,2 C 88 % 90 % 0 % 1020,4 hPa 0,0 l/m 0,0 km/h (0 Bft) S-SW 202 0 min 0,0 UV-I 3,7 C 5,7 C 0,0 km/h (0 Bft)
05.10.2014 01:50 5,5 C 26,0 C 7,0 C 5,7 C 5,7 C 0,2 C 88 % 90 % 0 % 1020,2 hPa 0,0 l/m 0,0 km/h (0 Bft) O-SO 112 0 min 0,0 UV-I 3,7 C 5,7 C 0,0 km/h (0 Bft)
05.10.2014 01:55 5,5 C 26,0 C 7,1 C 5,6 C 5,6 C 0,1 C 89 % 90 % 0 % 1020,2 hPa 0,0 l/m 0,0 km/h (0 Bft) O-SO 112 0 min 0,0 UV-I 3,8 C 5,6 C 0,0 km/h (0 Bft)
05.10.2014 02:00 5,5 C 26,0 C 6,9 C 5,6 C 5,6 C 0,1 C 89 % 90 % 0 % 1020,2 hPa 0,0 l/m 0,0 km/h (0 Bft) O 90 0 min 0,0 UV-I 3,8 C 5,6 C 0,0 km/h (0 Bft)
05.10.2014 02:05 5,4 C 26,0 C 7,0 C 5,7 C 5,7 C 0,3 C 89 % 90 % 0 % 1020,2 hPa 0,0 l/m 0,0 km/h (0 Bft) O 90 0 min 0,0 UV-I 3,7 C 5,7 C 0,0 km/h (0 Bft)
05.10.2014 02:10 5,5 C 26,0 C 6,9 C 5,6 C 5,6 C 0,1 C 89 % 90 % 0 % 1020,4 hPa 0,0 l/m 0,0 km/h (0 Bft) O 90 0 min 0,0 UV-I 3,8 C 5,6 C 0,0 km/h (0 Bft)
05.10.2014 02:15 5,4 C 26,0 C 6,9 C 5,5 C 5,5 C 0,1 C 89 % 90 % 0 % 1020,4 hPa 0,0 l/m 0,0 km/h (0 Bft) O 90 0 min 0,0 UV-I 3,7 C 5,5 C 0,0 km/h (0 Bft)
05.10.2014 02:20 5,2 C 26,0 C 6,8 C 5,3 C 5,3 C 0,1 C 89 % 90 % 0 % 1020,4 hPa 0,0 l/m 0,0 km/h (0 Bft) O 90 0 min 0,0 UV-I 3,5 C 5,3 C 0,0 km/h (0 Bft)
05.10.2014 02:25 5,2 C 26,0 C 6,8 C 5,3 C 5,3 C 0,1 C 89 % 90 % 0 % 1020,4 hPa 0,0 l/m 0,0 km/h (0 Bft) O 90 0 min 0,0 UV-I 3,5 C 5,3 C 0,0 km/h (0 Bft)
05.10.2014 02:30 5,1 C 26,0 C 6,8 C 5,3 C 5,3 C 0,2 C 89 % 90 % 0 % 1020,1 hPa 0,0 l/m 0,0 km/h (0 Bft) W-NW 292 0 min 0,0 UV-I 3,4 C 5,3 C 0,0 km/h (0 Bft)
05.10.2014 02:35 5,1 C 26,0 C 6,8 C 5,1 C 5,1 C 0,0 C 89 % 90 % 0 % 1020,1 hPa 0,0 l/m 0,0 km/h (0 Bft) W-NW 292 0 min 0,0 UV-I 3,4 C 5,1 C 0,0 km/h (0 Bft)
05.10.2014 02:40 5,1 C 26,0 C 6,6 C 5,1 C 5,1 C 0,0 C 89 % 90 % 0 % 1020,1 hPa 0,0 l/m 0,0 km/h (0 Bft) W-NW 292 0 min 0,0 UV-I 3,4 C 5,1 C 0,0 km/h (0 Bft)
05.10.2014 02:45 4,9 C 26,0 C 6,7 C 5,1 C 5,1 C 0,2 C 89 % 90 % 0 % 1020,1 hPa 0,0 l/m 0,0 km/h (0 Bft) W-NW 292 0 min 0,0 UV-I 3,2 C 5,1 C 0,0 km/h (0 Bft)
05.10.2014 02:50 5,1 C 26,0 C 6,6 C 5,2 C 5,2 C 0,1 C 89 % 90 % 0 % 1020,2 hPa 0,0 l/m 0,0 km/h (0 Bft) O-NO 67 0 min 0,0 UV-I 3,4 C 5,2 C 0,0 km/h (0 Bft)
05.10.2014 02:55 5,1 C 26,0 C 6,7 C 5,2 C 5,2 C 0,1 C 89 % 90 % 0 % 1020,2 hPa 0,0 l/m 0,0 km/h (0 Bft) O-NO 67 0 min 0,0 UV-I 3,4 C 5,2 C 0,0 km/h (0 Bft)
05.10.2014 03:00 4,9 C 26,0 C 6,5 C 5,1 C 5,1 C 0,2 C 89 % 90 % 0 % 1020,2 hPa 0,0 l/m 0,0 km/h (0 Bft) O-NO 67 0 min 0,0 UV-I 3,2 C 5,1 C 0,0 km/h (0 Bft)
05.10.2014 03:05 4,8 C 26,0 C 6,5 C 5,0 C 5,0 C 0,2 C 89 % 90 % 0 % 1020,2 hPa 0,0 l/m 0,0 km/h (0 Bft) N-NW 337 0 min 0,0 UV-I 3,1 C 5,0 C 0,0 km/h (0 Bft)
05.10.2014 03:10 4,8 C 26,0 C 6,4 C 4,9 C 4,9 C 0,1 C 89 % 90 % 0 % 1020,1 hPa 0,0 l/m 0,0 km/h (0 Bft) N-NW 337 0 min 0,0 UV-I 3,1 C 4,9 C 0,0 km/h (0 Bft)
05.10.2014 03:15 4,8 C 26,0 C 6,5 C 4,8 C 4,8 C 0,0 C 89 % 90 % 0 % 1020,1 hPa 0,0 l/m 0,0 km/h (0 Bft) N-NW 337 0 min 0,0 UV-I 3,1 C 4,8 C 0,0 km/h (0 Bft)
05.10.2014 03:20 4,7 C 26,0 C 6,5 C 4,7 C 4,7 C 0,0 C 89 % 90 % 0 % 1020,1 hPa 0,0 l/m 0,0 km/h (0 Bft) N-NW 337 0 min 0,0 UV-I 3,0 C 4,7 C 0,0 km/h (0 Bft)
05.10.2014 03:25 4,7 C 26,0 C 6,3 C 4,7 C 4,6 C 0,0 C 89 % 90 % 0 % 1020,1 hPa 0,0 l/m 0,0 km/h (0 Bft) N-NW 337 0 min 0,0 UV-I 3,0 C 4,6 C 0,0 km/h (0 Bft)
05.10.2014 03:30 4,5 C 26,0 C 6,3 C 4,6 C 4,6 C 0,1 C 89 % 90 % 0 % 1020,2 hPa 0,0 l/m 0,0 km/h (0 Bft) N-NW 337 0 min 0,0 UV-I 2,8 C 4,6 C 0,0 km/h (0 Bft)
05.10.2014 03:35 4,4 C 26,0 C 6,3 C 4,6 C 4,6 C 0,2 C 89 % 90 % 0 % 1020,2 hPa 0,0 l/m 0,0 km/h (0 Bft) N-NW 337 0 min 0,0 UV-I 2,7 C 4,6 C 0,0 km/h (0 Bft)
05.10.2014 03:41 4,4 C 26,0 C 6,3 C 4,6 C 4,6 C 0,2 C 89 % 90 % 0 % 1020,2 hPa 0,0 l/m 0,0 km/h (0 Bft) N 0 0 min 0,0 UV-I 2,7 C 4,6 C 0,0 km/h (0 Bft)
05.10.2014 03:45 4,4 C 26,0 C 6,3 C 4,6 C 4,6 C 0,2 C 89 % 90 % 0 % 1020,2 hPa 0,0 l/m 0,0 km/h (0 Bft) O 90 0 min 0,0 UV-I 2,7 C 4,6 C 0,0 km/h (0 Bft)
05.10.2014 03:50 4,4 C 26,0 C 6,2 C 4,7 C 4,7 C 0,3 C 89 % 90 % 0 % 1020,2 hPa 0,0 l/m 0,0 km/h (0 Bft) SW 225 0 min 0,0 UV-I 2,7 C 4,7 C 0,0 km/h (0 Bft)
05.10.2014 03:55 4,4 C 26,0 C 6,3 C 4,5 C 4,5 C 0,1 C 89 % 90 % 0 % 1020,2 hPa 0,0 l/m 0,0 km/h (0 Bft) W 270 0 min 0,0 UV-I 2,7 C 4,5 C 0,0 km/h (0 Bft)
05.10.2014 04:00 4,3 C 26,0 C 6,1 C 4,4 C 4,4 C 0,1 C 89 % 90 % 0 % 1020,2 hPa 0,0 l/m 0,0 km/h (0 Bft) O-NO 67 0 min 0,0 UV-I 2,7 C 4,4 C 0,0 km/h (0 Bft)
05.10.2014 04:05 4,3 C 26,0 C 6,1 C 4,5 C 4,5 C 0,2 C 89 % 90 % 0 % 1020,2 hPa 0,0 l/m 0,0 km/h (0 Bft) O-NO 67 0 min 0,0 UV-I 2,7 C 4,5 C 0,0 km/h (0 Bft)
05.10.2014 04:10 4,2 C 26,0 C 6,0 C 4,4 C 4,4 C 0,2 C 89 % 90 % 0 % 1020,2 hPa 0,0 l/m 0,0 km/h (0 Bft) O-NO 67 0 min 0,0 UV-I 2,6 C 4,4 C 0,0 km/h (0 Bft)
05.10.2014 04:15 4,2 C 26,0 C 6,1 C 4,5 C 4,5 C 0,3 C 89 % 90 % 0 % 1020,2 hPa 0,0 l/m 0,0 km/h (0 Bft) O-NO 67 0 min 0,0 UV-I 2,6 C 4,5 C 0,0 km/h (0 Bft)
05.10.2014 04:20 4,4 C 26,0 C 6,0 C 4,6 C 4,6 C 0,2 C 90 % 90 % 0 % 1020,2 hPa 0,0 l/m 0,0 km/h (0 Bft) N-NO 22 0 min 0,0 UV-I 2,9 C 4,6 C 0,0 km/h (0 Bft)
05.10.2014 04:25 4,4 C 26,0 C 6,1 C 4,6 C 4,6 C 0,2 C 90 % 90 % 0 % 1020,2 hPa 0,0 l/m 0,0 km/h (0 Bft) N-NO 22 0 min 0,0 UV-I 2,9 C 4,6 C 0,0 km/h (0 Bft)
05.10.2014 04:30 4,4 C 26,0 C 6,0 C 4,6 C 4,6 C 0,2 C 90 % 91 % 0 % 1020,3 hPa 0,0 l/m 0,0 km/h (0 Bft) N-NO 22 0 min 0,0 UV-I 2,9 C 4,6 C 0,0 km/h (0 Bft)
05.10.2014 04:35 4,3 C 26,0 C 6,0 C 4,5 C 4,5 C 0,2 C 90 % 91 % 0 % 1020,3 hPa 0,0 l/m 0,0 km/h (0 Bft) N-NO 22 0 min 0,0 UV-I 2,8 C 4,5 C 0,0 km/h (0 Bft)
05.10.2014 04:40 4,3 C 26,0 C 6,0 C 4,3 C 4,3 C 0,0 C 90 % 91 % 0 % 1020,3 hPa 0,0 l/m 0,0 km/h (0 Bft) W-NW 292 0 min 0,0 UV-I 2,8 C 4,3 C 0,0 km/h (0 Bft)
05.10.2014 04:45 4,1 C 26,0 C 5,9 C 4,3 C 4,3 C 0,2 C 90 % 90 % 0 % 1020,3 hPa 0,0 l/m 0,0 km/h (0 Bft) W-NW 292 0 min 0,0 UV-I 2,6 C 4,3 C 0,0 km/h (0 Bft)
05.10.2014 04:50 4,0 C 26,0 C 5,9 C 4,1 C 4,1 C 0,1 C 90 % 90 % 0 % 1020,3 hPa 0,0 l/m 0,0 km/h (0 Bft) SW 225 0 min 0,0 UV-I 2,5 C 4,1 C 0,0 km/h (0 Bft)
05.10.2014 04:55 4,0 C 26,0 C 5,8 C 4,0 C 3,9 C 0,0 C 89 % 90 % 0 % 1020,3 hPa 0,0 l/m 0,0 km/h (0 Bft) SW 225 0 min 0,0 UV-I 2,4 C 3,9 C 0,0 km/h (0 Bft)
05.10.2014 05:00 3,9 C 26,0 C 5,6 C 3,9 C 3,8 C 0,0 C 89 % 90 % 0 % 1020,3 hPa 0,0 l/m 0,0 km/h (0 Bft) SW 225 0 min 0,0 UV-I 2,3 C 3,8 C 0,0 km/h (0 Bft)
05.10.2014 05:05 3,9 C 26,0 C 5,7 C 3,9 C 3,8 C 0,0 C 89 % 90 % 0 % 1020,3 hPa 0,0 l/m 0,0 km/h (0 Bft) O-SO 112 0 min 0,0 UV-I 2,3 C 3,8 C 0,0 km/h (0 Bft)
05.10.2014 05:10 3,9 C 26,0 C 5,6 C 3,9 C 3,8 C 0,0 C 90 % 90 % 0 % 1020,1 hPa 0,0 l/m 0,0 km/h (0 Bft) O-SO 112 0 min 0,0 UV-I 2,4 C 3,8 C 0,0 km/h (0 Bft)
05.10.2014 05:15 3,8 C 26,0 C 5,6 C 3,9 C 3,9 C 0,1 C 90 % 90 % 0 % 1020,1 hPa 0,0 l/m 0,0 km/h (0 Bft) O 90 0 min 0,0 UV-I 2,3 C 3,9 C 0,0 km/h (0 Bft)
05.10.2014 05:20 3,9 C 26,0 C 5,6 C 4,1 C 4,1 C 0,2 C 90 % 90 % 0 % 1020,1 hPa 0,0 l/m 0,0 km/h (0 Bft) O-NO 67 0 min 0,0 UV-I 2,4 C 4,1 C 0,0 km/h (0 Bft)
05.10.2014 05:25 4,0 C 26,0 C 5,6 C 4,2 C 4,2 C 0,2 C 90 % 91 % 0 % 1020,1 hPa 0,0 l/m 0,0 km/h (0 Bft) O-NO 67 0 min 0,0 UV-I 2,5 C 4,2 C 0,0 km/h (0 Bft)
05.10.2014 05:30 4,0 C 26,0 C 5,6 C 4,3 C 4,3 C 0,3 C 90 % 91 % 0 % 1020,4 hPa 0,0 l/m 0,0 km/h (0 Bft) O 90 0 min 0,0 UV-I 2,5 C 4,3 C 0,0 km/h (0 Bft)
05.10.2014 05:35 4,0 C 26,0 C 5,7 C 4,3 C 4,3 C 0,3 C 90 % 91 % 0 % 1020,4 hPa 0,0 l/m 0,0 km/h (0 Bft) O-NO 67 0 min 0,0 UV-I 2,5 C 4,3 C 0,0 km/h (0 Bft)
05.10.2014 05:40 4,1 C 26,0 C 5,6 C 4,3 C 4,3 C 0,2 C 90 % 91 % 0 % 1020,4 hPa 0,0 l/m 0,0 km/h (0 Bft) S 180 0 min 0,0 UV-I 2,6 C 4,3 C 0,0 km/h (0 Bft)
05.10.2014 05:45 4,0 C 26,0 C 5,6 C 4,2 C 4,2 C 0,2 C 90 % 91 % 0 % 1020,4 hPa 0,0 l/m 0,0 km/h (0 Bft) W-SW 247 0 min 0,0 UV-I 2,5 C 4,2 C 0,0 km/h (0 Bft)
05.10.2014 05:50 3,9 C 26,0 C 5,5 C 3,9 C 3,8 C 0,0 C 90 % 91 % 0 % 1020,3 hPa 0,0 l/m 0,0 km/h (0 Bft) SO 135 0 min 0,0 UV-I 2,4 C 3,8 C 0,0 km/h (0 Bft)
05.10.2014 05:55 3,7 C 26,0 C 5,3 C 3,7 C 3,7 C 0,0 C 90 % 91 % 0 % 1020,3 hPa 0,0 l/m 0,0 km/h (0 Bft) W-SW 247 0 min 0,0 UV-I 2,2 C 3,7 C 0,0 km/h (0 Bft)
05.10.2014 06:00 3,6 C 26,0 C 5,3 C 3,5 C 3,4 C 0,0 C 90 % 91 % 0 % 1020,3 hPa 0,0 l/m 0,0 km/h (0 Bft) W-SW 247 0 min 0,0 UV-I 2,1 C 3,4 C 0,0 km/h (0 Bft)
05.10.2014 06:05 3,5 C 26,0 C 5,2 C 3,4 C 3,3 C 0,0 C 90 % 91 % 0 % 1020,3 hPa 0,0 l/m 0,0 km/h (0 Bft) W-SW 247 0 min 0,0 UV-I 2,0 C 3,3 C 0,0 km/h (0 Bft)
05.10.2014 06:10 3,4 C 26,0 C 5,2 C 3,4 C 3,4 C 0,0 C 90 % 91 % 0 % 1020,3 hPa 0,0 l/m 0,0 km/h (0 Bft) W-SW 247 0 min 0,0 UV-I 1,9 C 3,4 C 0,0 km/h (0 Bft)
05.10.2014 06:15 3,4 C 26,0 C 5,1 C 3,4 C 3,4 C 0,0 C 90 % 91 % 0 % 1020,3 hPa 0,0 l/m 0,0 km/h (0 Bft) W-SW 247 0 min 0,0 UV-I 1,9 C 3,4 C 0,0 km/h (0 Bft)
05.10.2014 06:20 3,5 C 26,0 C 5,1 C 3,4 C 3,3 C 0,0 C 90 % 91 % 0 % 1020,3 hPa 0,0 l/m 0,0 km/h (0 Bft) W-SW 247 0 min 0,0 UV-I 2,0 C 3,3 C 0,0 km/h (0 Bft)
05.10.2014 06:25 3,4 C 26,0 C 5,1 C 3,4 C 3,4 C 0,0 C 90 % 91 % 0 % 1020,3 hPa 0,0 l/m 0,0 km/h (0 Bft) W-SW 247 0 min 0,0 UV-I 1,9 C 3,4 C 0,0 km/h (0 Bft)
05.10.2014 06:30 3,4 C 26,0 C 5,3 C 3,5 C 3,5 C 0,1 C 90 % 91 % 0 % 1020,3 hPa 0,0 l/m 0,0 km/h (0 Bft) W-SW 247 0 min 0,0 UV-I 1,9 C 3,5 C 0,0 km/h (0 Bft)
05.10.2014 06:35 3,5 C 26,0 C 5,2 C 3,5 C 3,5 C 0,0 C 90 % 91 % 0 % 1020,3 hPa 0,0 l/m 0,0 km/h (0 Bft) W-SW 247 0 min 0,0 UV-I 2,0 C 3,5 C 0,0 km/h (0 Bft)
05.10.2014 06:41 3,4 C 26,0 C 5,2 C 3,4 C 3,3 C 0,0 C 90 % 91 % 0 % 1020,3 hPa 0,0 l/m 0,0 km/h (0 Bft) N 0 0 min 0,0 UV-I 1,9 C 3,3 C 0,0 km/h (0 Bft)
05.10.2014 06:45 3,4 C 26,0 C 5,2 C 3,4 C 3,3 C 0,0 C 90 % 91 % 0 % 1020,3 hPa 0,0 l/m 0,0 km/h (0 Bft) W-SW 247 0 min 0,0 UV-I 1,9 C 3,3 C 0,0 km/h (0 Bft)
05.10.2014 06:50 3,2 C 26,0 C 5,1 C 3,2 C 3,2 C 0,0 C 90 % 91 % 0 % 1020,4 hPa 0,0 l/m 0,0 km/h (0 Bft) W-SW 247 0 min 0,0 UV-I 1,7 C 3,2 C 0,0 km/h (0 Bft)
05.10.2014 06:55 3,2 C 26,0 C 5,1 C 3,3 C 3,3 C 0,1 C 90 % 91 % 0 % 1020,4 hPa 0,0 l/m 0,0 km/h (0 Bft) W-SW 247 0 min 0,0 UV-I 1,7 C 3,3 C 0,0 km/h (0 Bft)
05.10.2014 07:00 3,2 C 26,0 C 5,0 C 3,2 C 3,2 C 0,0 C 90 % 91 % 0 % 1020,4 hPa 0,0 l/m 0,0 km/h (0 Bft) NW 315 0 min 0,0 UV-I 1,7 C 3,2 C 0,0 km/h (0 Bft)
05.10.2014 07:05 3,1 C 26,0 C 5,1 C 3,2 C 3,2 C 0,1 C 90 % 91 % 0 % 1020,4 hPa 0,0 l/m 0,0 km/h (0 Bft) NW 315 0 min 0,0 UV-I 1,6 C 3,2 C 0,0 km/h (0 Bft)
05.10.2014 07:10 3,1 C 26,0 C 5,0 C 3,3 C 3,3 C 0,2 C 90 % 91 % 0 % 1020,7 hPa 0,0 l/m 0,0 km/h (0 Bft) O-NO 67 0 min 0,0 UV-I 1,6 C 3,3 C 0,0 km/h (0 Bft)
05.10.2014 07:15 3,1 C 26,0 C 5,1 C 3,3 C 3,3 C 0,2 C 90 % 91 % 0 % 1020,7 hPa 0,0 l/m 0,0 km/h (0 Bft) O-NO 67 0 min 0,0 UV-I 1,6 C 3,3 C 0,0 km/h (0 Bft)
05.10.2014 07:20 3,2 C 26,0 C 5,1 C 3,3 C 3,3 C 0,1 C 90 % 91 % 0 % 1020,7 hPa 0,0 l/m 0,0 km/h (0 Bft) O-NO 67 0 min 0,0 UV-I 1,7 C 3,3 C 0,0 km/h (0 Bft)
05.10.2014 07:25 3,1 C 25,1 C 5,0 C 3,2 C 3,2 C 0,1 C 90 % 91 % 0 % 1020,7 hPa 0,0 l/m 0,0 km/h (0 Bft) O-NO 67 0 min 0,0 UV-I 1,6 C 3,2 C 0,0 km/h (0 Bft)
05.10.2014 07:30 3,0 C 25,1 C 4,9 C 3,2 C 3,2 C 0,2 C 90 % 91 % 5 % 1021,1 hPa 0,0 l/m 0,0 km/h (0 Bft) O-NO 67 0 min 0,0 UV-I 1,5 C 3,2 C 0,0 km/h (0 Bft)
05.10.2014 07:35 3,1 C 25,1 C 4,8 C 3,2 C 3,2 C 0,1 C 90 % 91 % 3 % 1021,1 hPa 0,0 l/m 0,0 km/h (0 Bft) O-NO 67 0 min 0,0 UV-I 1,6 C 3,2 C 0,0 km/h (0 Bft)
05.10.2014 07:40 3,0 C 25,1 C 4,9 C 3,3 C 3,3 C 0,3 C 90 % 91 % 8 % 1021,1 hPa 0,0 l/m 0,0 km/h (0 Bft) NW 315 0 min 0,0 UV-I 1,5 C 3,3 C 0,0 km/h (0 Bft)
05.10.2014 07:45 2,9 C 25,1 C 4,9 C 3,8 C 3,8 C 0,9 C 90 % 91 % 24 % 1021,1 hPa 0,0 l/m 0,0 km/h (0 Bft) NW 315 5 min 0,0 UV-I 1,4 C 3,8 C 0,0 km/h (0 Bft)
05.10.2014 07:50 3,3 C 25,1 C 5,1 C 4,4 C 4,4 C 1,1 C 90 % 91 % 29 % 1020,9 hPa 0,0 l/m 0,0 km/h (0 Bft) O-NO 67 5 min 0,0 UV-I 1,8 C 4,4 C 0,0 km/h (0 Bft)
05.10.2014 07:55 3,5 C 25,1 C 5,1 C 4,9 C 4,9 C 1,4 C 91 % 91 % 37 % 1020,9 hPa 0,0 l/m 0,0 km/h (0 Bft) O-NO 67 5 min 0,0 UV-I 2,2 C 4,9 C 0,0 km/h (0 Bft)
05.10.2014 08:00 3,7 C 25,1 C 5,3 C 5,5 C 5,5 C 1,8 C 91 % 91 % 47 % 1020,9 hPa 0,0 l/m 0,0 km/h (0 Bft) O-NO 67 5 min 0,0 UV-I 2,4 C 5,5 C 0,0 km/h (0 Bft)
05.10.2014 08:05 3,8 C 25,1 C 5,3 C 5,8 C 5,8 C 2,0 C 91 % 91 % 53 % 1020,9 hPa 0,0 l/m 0,0 km/h (0 Bft) O 90 5 min 0,0 UV-I 2,5 C 5,8 C 0,0 km/h (0 Bft)
05.10.2014 08:10 3,9 C 25,1 C 5,5 C 6,6 C 6,6 C 2,7 C 91 % 91 % 71 % 1021,4 hPa 0,0 l/m 0,0 km/h (0 Bft) SW 225 5 min 0,0 UV-I 2,6 C 6,6 C 0,0 km/h (0 Bft)
05.10.2014 08:15 3,9 C 25,1 C 5,5 C 6,4 C 6,4 C 2,5 C 91 % 91 % 66 % 1021,4 hPa 0,0 l/m 0,0 km/h (0 Bft) SW 225 5 min 0,0 UV-I 2,6 C 6,4 C 0,0 km/h (0 Bft)
05.10.2014 08:20 3,8 C 25,1 C 5,5 C 5,8 C 5,8 C 2,0 C 91 % 91 % 53 % 1021,4 hPa 0,0 l/m 0,0 km/h (0 Bft) W-SW 247 5 min 0,0 UV-I 2,5 C 5,8 C 0,0 km/h (0 Bft)
05.10.2014 08:25 3,7 C 25,1 C 5,5 C 5,6 C 5,6 C 1,9 C 91 % 91 % 50 % 1021,4 hPa 0,0 l/m 0,0 km/h (0 Bft) W-SW 247 5 min 0,0 UV-I 2,4 C 5,6 C 0,0 km/h (0 Bft)
05.10.2014 08:30 3,8 C 25,1 C 5,7 C 5,6 C 5,6 C 1,8 C 91 % 91 % 47 % 1021,4 hPa 0,0 l/m 0,0 km/h (0 Bft) W-SW 247 5 min 0,0 UV-I 2,5 C 5,6 C 0,0 km/h (0 Bft)
05.10.2014 08:35 3,9 C 25,1 C 5,8 C 5,9 C 5,9 C 2,0 C 91 % 91 % 53 % 1021,4 hPa 0,0 l/m 0,0 km/h (0 Bft) W-SW 247 5 min 0,0 UV-I 2,6 C 5,9 C 0,0 km/h (0 Bft)
05.10.2014 08:40 3,9 C 25,1 C 5,9 C 6,2 C 6,2 C 2,3 C 91 % 91 % 61 % 1021,4 hPa 0,0 l/m 0,0 km/h (0 Bft) S-SO 157 5 min 0,0 UV-I 2,6 C 6,2 C 0,0 km/h (0 Bft)
05.10.2014 08:45 4,0 C 25,1 C 6,0 C 6,2 C 6,2 C 2,2 C 91 % 91 % 58 % 1021,4 hPa 0,0 l/m 0,0 km/h (0 Bft) SW 225 5 min 0,0 UV-I 2,7 C 6,2 C 0,0 km/h (0 Bft)
05.10.2014 08:50 4,1 C 25,1 C 6,1 C 6,2 C 6,2 C 2,1 C 91 % 91 % 55 % 1021,6 hPa 0,0 l/m 0,0 km/h (0 Bft) SW 225 0 min 0,0 UV-I 2,8 C 6,2 C 0,0 km/h (0 Bft)
05.10.2014 08:55 4,3 C 25,1 C 6,3 C 6,2 C 6,2 C 1,9 C 91 % 91 % 50 % 1021,6 hPa 0,0 l/m 0,0 km/h (0 Bft) W-SW 247 0 min 0,0 UV-I 3,0 C 6,2 C 0,0 km/h (0 Bft)
05.10.2014 09:00 4,3 C 25,1 C 6,4 C 6,2 C 6,2 C 1,9 C 91 % 91 % 50 % 1021,6 hPa 0,0 l/m 0,0 km/h (0 Bft) SW 225 0 min 0,0 UV-I 3,0 C 6,2 C 0,0 km/h (0 Bft)
05.10.2014 09:05 4,4 C 25,1 C 6,4 C 6,4 C 6,4 C 2,0 C 91 % 91 % 53 % 1021,6 hPa 0,0 l/m 0,0 km/h (0 Bft) SW 225 0 min 0,0 UV-I 3,1 C 6,4 C 0,0 km/h (0 Bft)
05.10.2014 09:10 4,5 C 25,1 C 6,5 C 6,5 C 6,5 C 2,0 C 91 % 91 % 53 % 1021,7 hPa 0,0 l/m 0,0 km/h (0 Bft) W-SW 247 0 min 0,0 UV-I 3,2 C 6,5 C 0,0 km/h (0 Bft)
05.10.2014 09:15 4,7 C 25,1 C 6,6 C 6,7 C 6,7 C 2,0 C 92 % 91 % 53 % 1021,7 hPa 0,0 l/m 0,0 km/h (0 Bft) SW 225 0 min 0,0 UV-I 3,5 C 6,7 C 0,0 km/h (0 Bft)
05.10.2014 09:20 4,8 C 25,1 C 6,9 C 6,9 C 6,9 C 2,1 C 92 % 91 % 55 % 1021,7 hPa 0,0 l/m 0,0 km/h (0 Bft) SW 225 0 min 0,0 UV-I 3,6 C 6,9 C 0,0 km/h (0 Bft)
05.10.2014 09:25 5,0 C 25,1 C 7,1 C 7,2 C 7,2 C 2,2 C 92 % 91 % 58 % 1021,7 hPa 0,0 l/m 0,0 km/h (0 Bft) SW 225 0 min 0,0 UV-I 3,8 C 7,2 C 0,0 km/h (0 Bft)
05.10.2014 09:30 5,2 C 25,1 C 7,3 C 7,4 C 7,4 C 2,2 C 92 % 91 % 58 % 1021,4 hPa 0,0 l/m 0,0 km/h (0 Bft) NW 315 0 min 0,0 UV-I 4,0 C 7,4 C 0,0 km/h (0 Bft)
05.10.2014 09:35 5,3 C 25,1 C 7,5 C 7,6 C 7,6 C 2,3 C 92 % 91 % 61 % 1021,4 hPa 0,0 l/m 0,0 km/h (0 Bft) W-SW 247 0 min 0,0 UV-I 4,1 C 7,6 C 0,0 km/h (0 Bft)
05.10.2014 09:41 5,7 C 25,1 C 7,9 C 8,1 C 8,1 C 2,4 C 92 % 91 % 63 % 1021,4 hPa 0,0 l/m 0,0 km/h (0 Bft) N 0 0 min 0,0 UV-I 4,5 C 8,1 C 0,0 km/h (0 Bft)
05.10.2014 09:45 5,7 C 25,1 C 7,9 C 8,1 C 8,1 C 2,4 C 92 % 91 % 63 % 1021,4 hPa 0,0 l/m 0,0 km/h (0 Bft) S-SW 202 0 min 0,0 UV-I 4,5 C 8,1 C 0,0 km/h (0 Bft)
05.10.2014 09:50 6,0 C 25,1 C 8,1 C 8,4 C 8,4 C 2,4 C 92 % 91 % 63 % 1021,6 hPa 0,0 l/m 0,0 km/h (0 Bft) SW 225 0 min 0,0 UV-I 4,8 C 8,4 C 0,0 km/h (0 Bft)
05.10.2014 09:55 6,3 C 25,1 C 8,2 C 8,5 C 8,5 C 2,2 C 92 % 91 % 58 % 1021,6 hPa 0,0 l/m 0,0 km/h (0 Bft) SW 225 0 min 0,0 UV-I 5,1 C 8,5 C 0,0 km/h (0 Bft)
05.10.2014 10:00 6,7 C 25,1 C 8,4 C 8,9 C 8,9 C 2,2 C 92 % 91 % 58 % 1021,6 hPa 0,0 l/m 0,0 km/h (0 Bft) S 180 0 min 0,0 UV-I 5,5 C 8,9 C 0,0 km/h (0 Bft)
05.10.2014 10:01 6,8 C 27,8 C 8,7 C 9,0 C 9,0 C 2,2 C 92 % 91 % 58 % 1021,6 hPa 0,0 l/m 0,0 km/h (0 Bft) W-SW 247 0 min 0,0 UV-I 5,6 C 9,0 C 0,0 km/h (0 Bft)
05.10.2014 10:06 7,2 C 27,8 C 9,1 C 9,5 C 9,5 C 2,3 C 93 % 91 % 61 % 1021,5 hPa 0,0 l/m 0,0 km/h (0 Bft) SW 225 0 min 0,0 UV-I 6,1 C 9,5 C 0,0 km/h (0 Bft)
05.10.2014 10:11 7,5 C 27,8 C 9,2 C 9,9 C 9,9 C 2,4 C 93 % 91 % 63 % 1021,5 hPa 0,0 l/m 0,0 km/h (0 Bft) W-SW 247 0 min 0,0 UV-I 6,4 C 9,9 C 0,0 km/h (0 Bft)
05.10.2014 10:14 7,5 C 27,8 C 9,2 C 9,9 C 9,9 C 2,4 C 93 % 91 % 63 % 1021,5 hPa 0,0 l/m 0,0 km/h (0 Bft) W-SW 247 0 min 0,0 UV-I 6,4 C 9,9 C 0,0 km/h (0 Bft)
05.10.2014 10:15 7,5 C 27,8 C 9,2 C 9,9 C 9,9 C 2,4 C 93 % 91 % 63 % 1021,5 hPa 0,0 l/m 0,0 km/h (0 Bft) W-SW 247 0 min 0,0 UV-I 6,4 C 9,9 C 0,0 km/h (0 Bft)
05.10.2014 10:20 7,7 C 27,8 C 9,6 C 10,5 C 10,5 C 2,8 C 93 % 91 % 74 % 1021,5 hPa 0,0 l/m 0,0 km/h (0 Bft) W-SW 247 0 min 0,0 UV-I 6,6 C 10,5 C 0,0 km/h (0 Bft)
05.10.2014 10:25 8,0 C 27,8 C 9,6 C 10,6 C 10,6 C 2,6 C 93 % 91 % 68 % 1021,5 hPa 0,0 l/m 0,0 km/h (0 Bft) SW 225 0 min 0,0 UV-I 6,9 C 10,6 C 0,0 km/h (0 Bft)
05.10.2014 10:30 8,3 C 27,8 C 9,9 C 10,9 C 10,9 C 2,6 C 93 % 91 % 68 % 1021,3 hPa 0,0 l/m 0,0 km/h (0 Bft) N 360 0 min 0,0 UV-I 7,2 C 10,9 C 2,1 km/h (1 Bft)
05.10.2014 10:35 8,6 C 27,8 C 10,3 C 11,2 C 11,2 C 2,6 C 93 % 91 % 68 % 1021,3 hPa 0,0 l/m 0,3 km/h (0 Bft) N 360 0 min 0,0 UV-I 7,5 C 11,2 C 0,0 km/h (0 Bft)
05.10.2014 10:40 9,1 C 27,8 C 10,6 C 11,7 C 11,7 C 2,6 C 93 % 91 % 68 % 1021,3 hPa 0,0 l/m 0,8 km/h (0 Bft) O-NO 67 0 min 0,0 UV-I 8,0 C 11,7 C 4,0 km/h (1 Bft)
05.10.2014 10:45 9,5 C 27,8 C 10,8 C 12,1 C 12,1 C 2,6 C 93 % 91 % 68 % 1021,3 hPa 0,0 l/m 0,8 km/h (0 Bft) O-NO 67 0 min 0,0 UV-I 8,4 C 12,1 C 4,7 km/h (1 Bft)
05.10.2014 10:50 10,1 C 27,8 C 11,3 C 12,7 C 12,7 C 2,6 C 93 % 91 % 68 % 1021,4 hPa 0,0 l/m 2,1 km/h (1 Bft) O-SO 112 0 min 0,0 UV-I 9,0 C 12,7 C 6,8 km/h (2 Bft)
05.10.2014 10:55 10,3 C 27,8 C 11,5 C 12,9 C 12,9 C 2,6 C 93 % 91 % 68 % 1021,4 hPa 0,0 l/m 1,8 km/h (1 Bft) W 270 0 min 0,0 UV-I 9,2 C 12,9 C 1,6 km/h (1 Bft)
05.10.2014 11:00 10,7 C 27,8 C 11,9 C 13,5 C 13,5 C 2,8 C 93 % 91 % 74 % 1021,4 hPa 0,0 l/m 2,3 km/h (1 Bft) O-NO 67 0 min 0,0 UV-I 9,6 C 13,5 C 8,0 km/h (2 Bft)
05.10.2014 11:05 11,3 C 27,8 C 12,1 C 13,8 C 13,8 C 2,5 C 93 % 90 % 66 % 1021,4 hPa 0,0 l/m 3,5 km/h (1 Bft) O-SO 112 0 min 0,0 UV-I 10,2 C 13,8 C 6,4 km/h (2 Bft)
05.10.2014 11:06 12,3 C 27,6 C 12,5 C 14,1 C 14,1 C 1,8 C 93 % 90 % 47 % 1021,6 hPa 0,0 l/m 4,7 km/h (1 Bft) O 90 0 min 0,0 UV-I 11,2 C 14,1 C 3,2 km/h (1 Bft)
05.10.2014 11:11 12,5 C 27,0 C 12,7 C 14,4 C 14,4 C 1,9 C 91 % 90 % 50 % 1021,6 hPa 0,0 l/m 5,3 km/h (1 Bft) O 90 0 min 0,0 UV-I 11,1 C 14,4 C 11,9 km/h (2 Bft)
05.10.2014 11:16 13,1 C 26,5 C 12,9 C 14,6 C 14,6 C 1,5 C 85 % 89 % 39 % 1021,6 hPa 0,0 l/m 5,8 km/h (2 Bft) O-NO 67 0 min 0,0 UV-I 10,6 C 14,6 C 9,7 km/h (2 Bft)
05.10.2014 11:21 13,3 C 26,0 C 13,0 C 14,8 C 14,8 C 1,5 C 84 % 88 % 39 % 1021,6 hPa 0,0 l/m 6,1 km/h (2 Bft) O-NO 67 0 min 0,0 UV-I 10,7 C 14,8 C 6,8 km/h (2 Bft)
05.10.2014 11:26 13,9 C 25,4 C 13,2 C 15,0 C 15,0 C 1,1 C 82 % 88 % 29 % 1021,6 hPa 0,0 l/m 6,1 km/h (2 Bft) O-NO 67 0 min 0,0 UV-I 10,9 C 15,0 C 8,0 km/h (2 Bft)
05.10.2014 11:31 14,1 C 25,0 C 13,5 C 15,1 C 15,1 C 1,0 C 80 % 87 % 26 % 1021,6 hPa 0,0 l/m 6,0 km/h (2 Bft) O-NO 67 0 min 0,0 UV-I 10,7 C 15,1 C 7,6 km/h (2 Bft)
05.10.2014 11:36 14,4 C 24,8 C 13,5 C 15,3 C 15,3 C 0,9 C 79 % 86 % 24 % 1021,6 hPa 0,0 l/m 4,8 km/h (1 Bft) O-NO 67 0 min 0,0 UV-I 10,8 C 15,3 C 3,7 km/h (1 Bft)
05.10.2014 11:41 14,4 C 24,6 C 13,6 C 15,4 C 15,4 C 1,0 C 79 % 86 % 26 % 1021,6 hPa 0,0 l/m 4,2 km/h (1 Bft) O-NO 67 0 min 0,0 UV-I 10,8 C 15,4 C 4,5 km/h (1 Bft)
05.10.2014 11:46 14,7 C 24,5 C 13,7 C 15,5 C 15,5 C 0,8 C 78 % 86 % 21 % 1021,3 hPa 0,0 l/m 4,5 km/h (1 Bft) O-NO 67 0 min 0,0 UV-I 10,9 C 15,5 C 4,8 km/h (1 Bft)
05.10.2014 11:59 14,8 C 24,5 C 13,8 C 15,9 C 15,9 C 1,1 C 78 % 85 % 29 % 1021,3 hPa 0,0 l/m 2,4 km/h (1 Bft) O-NO 67 0 min 0,0 UV-I 11,0 C 15,9 C 0,0 km/h (0 Bft)
05.10.2014 12:00 14,8 C 24,5 C 13,8 C 15,9 C 15,9 C 1,1 C 78 % 85 % 29 % 1021,3 hPa 0,0 l/m 2,4 km/h (1 Bft) O-NO 67 0 min 0,0 UV-I 11,0 C 15,9 C 0,0 km/h (0 Bft)
05.10.2014 12:05 14,9 C 24,4 C 14,0 C 16,1 C 16,1 C 1,2 C 77 % 85 % 32 % 1021,3 hPa 0,0 l/m 2,4 km/h (1 Bft) O-NO 67 0 min 0,0 UV-I 10,9 C 16,1 C 6,1 km/h (2 Bft)
05.10.2014 12:10 15,1 C 24,4 C 14,2 C 16,2 C 16,2 C 1,1 C 75 % 84 % 29 % 1021,1 hPa 0,0 l/m 4,7 km/h (1 Bft) O-NO 67 0 min 0,0 UV-I 10,7 C 16,2 C 8,0 km/h (2 Bft)
05.10.2014 12:15 15,2 C 24,4 C 14,5 C 16,8 C 16,8 C 1,6 C 76 % 84 % 42 % 1021,1 hPa 0,0 l/m 4,8 km/h (1 Bft) W-SW 247 0 min 0,0 UV-I 11,0 C 16,8 C 3,4 km/h (1 Bft)
05.10.2014 12:20 15,5 C 24,4 C 14,7 C 17,3 C 17,3 C 1,8 C 75 % 82 % 47 % 1021,1 hPa 0,0 l/m 3,9 km/h (1 Bft) N-NO 22 0 min 0,0 UV-I 11,1 C 17,3 C 7,2 km/h (2 Bft)
05.10.2014 12:25 15,4 C 24,5 C 14,8 C 17,3 C 17,3 C 1,9 C 74 % 82 % 50 % 1021,1 hPa 0,0 l/m 4,0 km/h (1 Bft) O-NO 67 0 min 0,0 UV-I 10,8 C 17,3 C 3,9 km/h (1 Bft)
05.10.2014 12:30 15,5 C 24,5 C 14,9 C 17,4 C 17,4 C 1,9 C 74 % 81 % 50 % 1020,9 hPa 0,0 l/m 4,8 km/h (1 Bft) O-NO 67 0 min 0,0 UV-I 10,9 C 17,4 C 6,3 km/h (2 Bft)
05.10.2014 12:35 15,5 C 24,5 C 15,0 C 17,5 C 17,5 C 2,0 C 74 % 81 % 53 % 1020,9 hPa 0,0 l/m 5,6 km/h (1 Bft) NO 45 0 min 0,0 UV-I 10,9 C 17,5 C 6,3 km/h (2 Bft)
05.10.2014 12:41 15,6 C 24,5 C 14,9 C 19,1 C 19,1 C 3,5 C 75 % 81 % 92 % 1020,9 hPa 0,0 l/m 2,4 km/h (1 Bft) N 0 6 min 0,0 UV-I 11,2 C 19,1 C 2,9 km/h (1 Bft)
05.10.2014 12:45 15,6 C 24,5 C 14,9 C 19,1 C 19,1 C 3,5 C 75 % 81 % 92 % 1020,9 hPa 0,0 l/m 2,4 km/h (1 Bft) NO 45 4 min 0,0 UV-I 11,2 C 19,1 C 2,9 km/h (1 Bft)
05.10.2014 12:50 15,7 C 24,5 C 15,1 C 20,0 C 20,0 C 4,3 C 74 % 80 % 100 % 1020,6 hPa 0,0 l/m 3,4 km/h (1 Bft) O 90 5 min 0,0 UV-I 11,1 C 20,0 C 4,2 km/h (1 Bft)
05.10.2014 12:55 15,9 C 24,5 C 15,1 C 20,5 C 20,5 C 4,6 C 73 % 80 % 100 % 1020,6 hPa 0,0 l/m 4,0 km/h (1 Bft) O-NO 67 5 min 0,0 UV-I 11,1 C 20,5 C 7,6 km/h (2 Bft)
05.10.2014 13:00 15,9 C 24,5 C 15,2 C 20,7 C 20,7 C 4,8 C 71 % 79 % 100 % 1020,6 hPa 0,0 l/m 4,5 km/h (1 Bft) O 90 5 min 0,0 UV-I 10,6 C 20,7 C 13,7 km/h (3 Bft)
05.10.2014 13:05 15,9 C 24,5 C 15,4 C 20,7 C 20,7 C 4,8 C 71 % 78 % 100 % 1020,6 hPa 0,0 l/m 5,3 km/h (1 Bft) O-SO 112 5 min 0,0 UV-I 10,6 C 20,7 C 5,0 km/h (1 Bft)
05.10.2014 13:10 16,0 C 24,5 C 15,5 C 21,2 C 21,2 C 5,2 C 71 % 78 % 100 % 1020,8 hPa 0,0 l/m 4,5 km/h (1 Bft) N-NO 22 5 min 0,0 UV-I 10,7 C 21,2 C 2,4 km/h (1 Bft)
05.10.2014 13:15 16,3 C 24,5 C 15,7 C 21,6 C 21,6 C 5,3 C 71 % 78 % 100 % 1020,8 hPa 0,0 l/m 2,9 km/h (1 Bft) O 90 5 min 0,0 UV-I 11,0 C 21,6 C 3,1 km/h (1 Bft)
05.10.2014 13:20 16,4 C 24,5 C 15,9 C 22,1 C 22,1 C 5,7 C 71 % 76 % 100 % 1020,8 hPa 0,0 l/m 3,4 km/h (1 Bft) O-NO 67 5 min 0,0 UV-I 11,1 C 22,1 C 7,4 km/h (2 Bft)
05.10.2014 13:25 16,4 C 24,6 C 16,0 C 21,8 C 21,8 C 5,4 C 69 % 77 % 100 % 1020,8 hPa 0,0 l/m 4,8 km/h (1 Bft) O-NO 67 5 min 0,0 UV-I 10,7 C 21,8 C 9,7 km/h (2 Bft)
05.10.2014 13:30 16,4 C 24,6 C 16,0 C 20,6 C 20,6 C 4,2 C 68 % 76 % 100 % 1020,6 hPa 0,0 l/m 5,6 km/h (1 Bft) O-NO 67 5 min 0,0 UV-I 10,5 C 20,6 C 6,1 km/h (2 Bft)
05.10.2014 13:35 16,3 C 24,6 C 15,9 C 20,3 C 20,3 C 4,0 C 69 % 76 % 100 % 1020,6 hPa 0,0 l/m 5,1 km/h (1 Bft) O 90 5 min 0,0 UV-I 10,6 C 20,3 C 4,8 km/h (1 Bft)
05.10.2014 13:40 16,2 C 24,6 C 15,7 C 19,3 C 19,3 C 3,1 C 69 % 76 % 82 % 1020,6 hPa 0,0 l/m 4,2 km/h (1 Bft) O 90 0 min 0,0 UV-I 10,5 C 19,3 C 5,0 km/h (1 Bft)
05.10.2014 13:41 16,1 C 24,6 C 15,6 C 18,6 C 18,6 C 2,5 C 69 % 76 % 66 % 1020,6 hPa 0,0 l/m 4,2 km/h (1 Bft) O-NO 67 0 min 0,0 UV-I 10,4 C 18,6 C 6,1 km/h (2 Bft)
05.10.2014 13:46 16,1 C 24,6 C 15,5 C 18,0 C 18,0 C 1,9 C 69 % 76 % 50 % 1020,4 hPa 0,0 l/m 3,7 km/h (1 Bft) O-NO 67 0 min 0,0 UV-I 10,4 C 18,0 C 5,5 km/h (1 Bft)
05.10.2014 13:56 16,3 C 24,6 C 15,6 C 17,9 C 17,9 C 1,6 C 69 % 76 % 42 % 1020,4 hPa 0,0 l/m 4,8 km/h (1 Bft) O-SO 112 0 min 0,0 UV-I 10,6 C 17,9 C 4,3 km/h (1 Bft)
05.10.2014 14:00 16,3 C 24,6 C 15,6 C 17,9 C 17,9 C 1,6 C 69 % 76 % 42 % 1020,4 hPa 0,0 l/m 4,8 km/h (1 Bft) O-SO 112 0 min 0,0 UV-I 10,6 C 17,9 C 4,3 km/h (1 Bft)
05.10.2014 14:05 16,3 C 24,6 C 15,7 C 18,0 C 18,0 C 1,7 C 68 % 75 % 45 % 1020,4 hPa 0,0 l/m 4,7 km/h (1 Bft) O-NO 67 0 min 0,0 UV-I 10,4 C 18,0 C 7,6 km/h (2 Bft)
05.10.2014 14:10 16,3 C 24,6 C 15,9 C 18,1 C 18,1 C 1,8 C 69 % 76 % 47 % 1020,3 hPa 0,0 l/m 5,5 km/h (1 Bft) O-SO 112 0 min 0,0 UV-I 10,6 C 18,1 C 4,7 km/h (1 Bft)
05.10.2014 14:15 16,3 C 24,7 C 16,1 C 18,1 C 18,1 C 1,8 C 69 % 75 % 47 % 1020,3 hPa 0,0 l/m 4,7 km/h (1 Bft) O 90 0 min 0,0 UV-I 10,6 C 18,1 C 1,9 km/h (1 Bft)
05.10.2014 14:20 16,4 C 24,7 C 16,3 C 18,4 C 18,4 C 2,0 C 68 % 74 % 53 % 1020,3 hPa 0,0 l/m 4,3 km/h (1 Bft) O 90 0 min 0,0 UV-I 10,5 C 18,4 C 8,0 km/h (2 Bft)
05.10.2014 14:25 16,3 C 24,7 C 16,3 C 18,3 C 18,3 C 2,0 C 68 % 74 % 53 % 1020,3 hPa 0,0 l/m 4,3 km/h (1 Bft) O-NO 67 0 min 0,0 UV-I 10,4 C 18,3 C 5,6 km/h (1 Bft)
05.10.2014 14:30 16,4 C 24,6 C 16,4 C 18,5 C 18,5 C 2,1 C 68 % 74 % 55 % 1020,3 hPa 0,0 l/m 4,0 km/h (1 Bft) O-NO 67 0 min 0,0 UV-I 10,5 C 18,5 C 5,5 km/h (1 Bft)
05.10.2014 14:35 16,4 C 24,6 C 16,3 C 18,5 C 18,5 C 2,1 C 68 % 74 % 55 % 1020,3 hPa 0,0 l/m 3,5 km/h (1 Bft) N 360 0 min 0,0 UV-I 10,5 C 18,5 C 0,0 km/h (0 Bft)
05.10.2014 14:40 16,4 C 24,6 C 16,7 C 18,9 C 18,9 C 2,5 C 68 % 73 % 66 % 1020,3 hPa 0,0 l/m 3,4 km/h (1 Bft) N-NO 22 0 min 0,0 UV-I 10,5 C 18,9 C 1,6 km/h (1 Bft)
05.10.2014 14:45 16,5 C 24,6 C 16,7 C 19,5 C 19,5 C 3,0 C 68 % 72 % 79 % 1020,3 hPa 0,0 l/m 3,1 km/h (1 Bft) O-NO 67 0 min 0,0 UV-I 10,6 C 19,5 C 6,1 km/h (2 Bft)
05.10.2014 14:50 16,7 C 24,7 C 16,8 C 20,2 C 20,2 C 3,5 C 67 % 73 % 92 % 1020,1 hPa 0,0 l/m 2,9 km/h (1 Bft) S 180 5 min 0,0 UV-I 10,5 C 20,2 C 4,2 km/h (1 Bft)
05.10.2014 14:55 16,8 C 24,7 C 16,9 C 20,4 C 20,4 C 3,6 C 67 % 72 % 95 % 1020,1 hPa 0,0 l/m 3,5 km/h (1 Bft) O-SO 112 5 min 0,0 UV-I 10,6 C 20,4 C 1,8 km/h (1 Bft)
05.10.2014 15:00 16,8 C 24,7 C 16,9 C 20,7 C 20,7 C 3,9 C 65 % 72 % 100 % 1020,1 hPa 0,0 l/m 5,1 km/h (1 Bft) NO 45 5 min 0,0 UV-I 10,2 C 20,7 C 16,6 km/h (3 Bft)
05.10.2014 15:05 16,8 C 24,7 C 16,7 C 19,9 C 19,9 C 3,1 C 65 % 72 % 82 % 1020,1 hPa 0,0 l/m 5,3 km/h (1 Bft) O-NO 67 0 min 0,0 UV-I 10,2 C 19,9 C 7,4 km/h (2 Bft)
05.10.2014 15:10 16,7 C 24,7 C 16,5 C 19,0 C 19,0 C 2,3 C 64 % 71 % 61 % 1020,1 hPa 0,0 l/m 6,3 km/h (2 Bft) O-NO 67 0 min 0,0 UV-I 9,9 C 19,0 C 9,3 km/h (2 Bft)
05.10.2014 15:15 16,6 C 24,7 C 16,5 C 18,7 C 18,7 C 2,1 C 65 % 72 % 55 % 1020,1 hPa 0,0 l/m 6,4 km/h (2 Bft) O-NO 67 0 min 0,0 UV-I 10,0 C 18,7 C 10,3 km/h (2 Bft)
05.10.2014 15:20 16,6 C 24,7 C 16,7 C 18,8 C 18,8 C 2,2 C 66 % 72 % 58 % 1020,1 hPa 0,0 l/m 6,8 km/h (2 Bft) O-NO 67 0 min 0,0 UV-I 10,2 C 18,8 C 8,0 km/h (2 Bft)
05.10.2014 15:25 16,8 C 24,7 C 16,9 C 19,3 C 19,3 C 2,5 C 65 % 72 % 66 % 1020,1 hPa 0,0 l/m 6,8 km/h (2 Bft) NO 45 0 min 0,0 UV-I 10,2 C 19,3 C 6,1 km/h (2 Bft)
05.10.2014 15:30 16,9 C 24,7 C 17,1 C 20,5 C 20,5 C 3,6 C 64 % 71 % 95 % 1020,1 hPa 0,0 l/m 5,6 km/h (1 Bft) O-NO 67 5 min 0,0 UV-I 10,0 C 20,5 C 11,1 km/h (2 Bft)
05.10.2014 15:35 16,9 C 24,7 C 17,1 C 20,3 C 20,3 C 3,4 C 65 % 70 % 89 % 1020,1 hPa 0,0 l/m 4,8 km/h (1 Bft) O-NO 67 5 min 0,0 UV-I 10,3 C 20,3 C 3,9 km/h (1 Bft)
05.10.2014 15:41 16,9 C 24,7 C 17,1 C 20,9 C 20,9 C 4,0 C 64 % 70 % 100 % 1020,1 hPa 0,0 l/m 4,8 km/h (1 Bft) N 0 6 min 0,0 UV-I 10,0 C 20,9 C 4,8 km/h (1 Bft)
05.10.2014 15:45 16,9 C 24,7 C 17,1 C 20,9 C 20,9 C 4,0 C 64 % 70 % 100 % 1020,1 hPa 0,0 l/m 4,8 km/h (1 Bft) O 90 4 min 0,0 UV-I 10,0 C 20,9 C 4,8 km/h (1 Bft)
05.10.2014 15:50 16,8 C 24,7 C 16,9 C 19,9 C 19,9 C 3,1 C 65 % 71 % 82 % 1019,9 hPa 0,0 l/m 5,0 km/h (1 Bft) O 90 0 min 0,0 UV-I 10,2 C 19,9 C 4,8 km/h (1 Bft)
05.10.2014 15:55 16,8 C 24,7 C 16,9 C 19,8 C 19,8 C 3,0 C 66 % 72 % 79 % 1019,9 hPa 0,0 l/m 4,2 km/h (1 Bft) N-NO 22 0 min 0,0 UV-I 10,4 C 19,8 C 5,6 km/h (1 Bft)
05.10.2014 16:00 16,7 C 24,7 C 16,7 C 19,1 C 19,1 C 2,4 C 66 % 72 % 63 % 1019,9 hPa 0,0 l/m 4,3 km/h (1 Bft) N-NO 22 0 min 0,0 UV-I 10,3 C 19,1 C 10,6 km/h (2 Bft)
05.10.2014 16:05 16,5 C 24,7 C 16,5 C 18,4 C 18,4 C 1,9 C 67 % 72 % 50 % 1019,9 hPa 0,0 l/m 5,5 km/h (1 Bft) O-NO 67 0 min 0,0 UV-I 10,4 C 18,4 C 4,8 km/h (1 Bft)
05.10.2014 16:10 16,3 C 24,7 C 16,1 C 17,7 C 17,7 C 1,4 C 68 % 73 % 37 % 1019,9 hPa 0,0 l/m 5,1 km/h (1 Bft) O-NO 67 0 min 0,0 UV-I 10,4 C 17,7 C 3,5 km/h (1 Bft)
05.10.2014 16:15 16,3 C 24,7 C 15,9 C 17,4 C 17,4 C 1,1 C 68 % 74 % 29 % 1019,9 hPa 0,0 l/m 4,5 km/h (1 Bft) O-NO 67 0 min 0,0 UV-I 10,4 C 17,4 C 8,4 km/h (2 Bft)
05.10.2014 16:20 16,2 C 24,7 C 15,7 C 17,1 C 17,1 C 0,9 C 68 % 74 % 24 % 1019,9 hPa 0,0 l/m 4,7 km/h (1 Bft) O 90 0 min 0,0 UV-I 10,3 C 17,1 C 8,9 km/h (2 Bft)
05.10.2014 16:25 16,1 C 24,7 C 15,7 C 17,0 C 17,0 C 0,9 C 69 % 74 % 24 % 1019,9 hPa 0,0 l/m 5,3 km/h (1 Bft) O-NO 67 0 min 0,0 UV-I 10,4 C 17,0 C 5,1 km/h (1 Bft)
05.10.2014 16:30 16,0 C 24,7 C 15,4 C 16,8 C 16,8 C 0,8 C 69 % 76 % 21 % 1019,9 hPa 0,0 l/m 5,6 km/h (1 Bft) O-NO 67 0 min 0,0 UV-I 10,3 C 16,8 C 6,1 km/h (2 Bft)
05.10.2014 16:35 15,9 C 24,7 C 15,3 C 16,7 C 16,7 C 0,8 C 69 % 75 % 21 % 1019,9 hPa 0,0 l/m 5,3 km/h (1 Bft) O-NO 67 0 min 0,0 UV-I 10,2 C 16,7 C 5,8 km/h (2 Bft)
05.10.2014 16:40 15,9 C 24,7 C 15,2 C 16,4 C 16,4 C 0,5 C 69 % 76 % 13 % 1019,9 hPa 0,0 l/m 5,6 km/h (1 Bft) NO 45 0 min 0,0 UV-I 10,2 C 16,4 C 7,4 km/h (2 Bft)
05.10.2014 16:45 15,8 C 24,7 C 15,1 C 16,2 C 16,2 C 0,4 C 70 % 76 % 11 % 1019,9 hPa 0,0 l/m 4,8 km/h (1 Bft) O 90 0 min 0,0 UV-I 10,3 C 16,2 C 4,7 km/h (1 Bft)
05.10.2014 16:50 15,7 C 24,7 C 14,9 C 16,0 C 16,0 C 0,3 C 70 % 76 % 8 % 1019,5 hPa 0,0 l/m 4,5 km/h (1 Bft) O 90 0 min 0,0 UV-I 10,2 C 16,0 C 10,6 km/h (2 Bft)
05.10.2014 16:55 15,6 C 24,7 C 14,9 C 16,0 C 16,0 C 0,4 C 70 % 76 % 11 % 1019,5 hPa 0,0 l/m 5,3 km/h (1 Bft) O-NO 67 0 min 0,0 UV-I 10,1 C 16,0 C 9,3 km/h (2 Bft)
05.10.2014 17:00 15,7 C 24,7 C 14,9 C 16,0 C 16,0 C 0,3 C 70 % 76 % 8 % 1019,5 hPa 0,0 l/m 6,0 km/h (2 Bft) O-NO 67 0 min 0,0 UV-I 10,2 C 16,0 C 6,3 km/h (2 Bft)
05.10.2014 17:05 15,7 C 24,7 C 14,9 C 16,0 C 16,0 C 0,3 C 70 % 77 % 8 % 1019,5 hPa 0,0 l/m 5,8 km/h (2 Bft) O 90 0 min 0,0 UV-I 10,2 C 16,0 C 6,9 km/h (2 Bft)
05.10.2014 17:10 15,7 C 24,7 C 15,1 C 16,2 C 16,2 C 0,5 C 71 % 77 % 13 % 1019,4 hPa 0,0 l/m 5,3 km/h (1 Bft) O-NO 67 0 min 0,0 UV-I 10,5 C 16,2 C 8,5 km/h (2 Bft)
05.10.2014 17:15 15,6 C 24,7 C 15,0 C 16,2 C 16,2 C 0,6 C 71 % 77 % 16 % 1019,4 hPa 0,0 l/m 6,0 km/h (2 Bft) O-SO 112 0 min 0,0 UV-I 10,4 C 16,2 C 6,4 km/h (2 Bft)
05.10.2014 17:20 15,5 C 24,7 C 14,9 C 16,1 C 16,1 C 0,6 C 71 % 77 % 16 % 1019,4 hPa 0,0 l/m 6,8 km/h (2 Bft) O-NO 67 0 min 0,0 UV-I 10,3 C 16,1 C 8,2 km/h (2 Bft)
05.10.2014 17:25 15,4 C 16,6 C 14,8 C 16,0 C 16,0 C 0,6 C 72 % 78 % 16 % 1019,4 hPa 0,0 l/m 6,6 km/h (2 Bft) O-NO 67 0 min 0,0 UV-I 10,4 C 16,0 C 6,6 km/h (2 Bft)
05.10.2014 17:30 15,4 C 25,2 C 14,8 C 15,9 C 15,9 C 0,5 C 73 % 78 % 13 % 1019,4 hPa 0,0 l/m 6,1 km/h (2 Bft) O-NO 67 0 min 0,0 UV-I 10,6 C 15,9 C 6,6 km/h (2 Bft)
05.10.2014 17:35 15,5 C 25,2 C 14,8 C 15,9 C 15,9 C 0,4 C 72 % 78 % 11 % 1019,4 hPa 0,0 l/m 6,1 km/h (2 Bft) NO 45 0 min 0,0 UV-I 10,5 C 15,9 C 4,2 km/h (1 Bft)
05.10.2014 17:40 15,5 C 25,3 C 14,8 C 15,8 C 15,8 C 0,3 C 73 % 79 % 8 % 1019,4 hPa 0,0 l/m 5,0 km/h (1 Bft) O-NO 67 0 min 0,0 UV-I 10,7 C 15,8 C 5,0 km/h (1 Bft)
05.10.2014 17:45 15,3 C 25,2 C 14,7 C 15,7 C 15,7 C 0,4 C 73 % 79 % 11 % 1019,4 hPa 0,0 l/m 4,3 km/h (1 Bft) NO 45 0 min 0,0 UV-I 10,5 C 15,7 C 5,5 km/h (1 Bft)
05.10.2014 17:50 15,2 C 25,2 C 14,6 C 15,6 C 15,6 C 0,4 C 73 % 79 % 11 % 1019,4 hPa 0,0 l/m 4,8 km/h (1 Bft) O 90 0 min 0,0 UV-I 10,4 C 15,6 C 5,0 km/h (1 Bft)
05.10.2014 17:55 15,2 C 25,2 C 14,6 C 15,5 C 15,5 C 0,3 C 74 % 80 % 8 % 1019,4 hPa 0,0 l/m 5,5 km/h (1 Bft) O-NO 67 0 min 0,0 UV-I 10,6 C 15,5 C 7,7 km/h (2 Bft)
05.10.2014 18:00 15,2 C 25,3 C 14,4 C 15,3 C 15,3 C 0,1 C 74 % 79 % 3 % 1019,4 hPa 0,0 l/m 6,0 km/h (2 Bft) NO 45 0 min 0,0 UV-I 10,6 C 15,3 C 8,9 km/h (2 Bft)
05.10.2014 18:05 15,1 C 25,3 C 14,4 C 15,1 C 15,1 C 0,0 C 74 % 80 % 0 % 1019,4 hPa 0,0 l/m 5,8 km/h (2 Bft) O-NO 67 0 min 0,0 UV-I 10,5 C 15,1 C 6,9 km/h (2 Bft)
05.10.2014 18:10 15,1 C 25,3 C 14,2 C 15,1 C 15,0 C 0,0 C 75 % 80 % 0 % 1019,5 hPa 0,0 l/m 6,0 km/h (2 Bft) O 90 0 min 0,0 UV-I 10,7 C 15,0 C 6,1 km/h (2 Bft)
05.10.2014 18:15 14,9 C 25,3 C 14,3 C 14,9 C 14,9 C 0,0 C 75 % 80 % 0 % 1019,5 hPa 0,0 l/m 6,3 km/h (2 Bft) O 90 0 min 0,0 UV-I 10,5 C 14,9 C 6,0 km/h (2 Bft)
05.10.2014 18:20 14,8 C 25,3 C 14,0 C 14,8 C 14,8 C 0,0 C 75 % 81 % 0 % 1019,5 hPa 0,0 l/m 5,6 km/h (1 Bft) O 90 0 min 0,0 UV-I 10,4 C 14,8 C 8,2 km/h (2 Bft)
05.10.2014 18:25 14,8 C 25,4 C 14,0 C 14,7 C 14,6 C 0,0 C 75 % 81 % 0 % 1019,5 hPa 0,0 l/m 5,1 km/h (1 Bft) O-NO 67 0 min 0,0 UV-I 10,4 C 14,6 C 5,5 km/h (1 Bft)
05.10.2014 18:30 14,7 C 25,4 C 13,9 C 14,7 C 14,6 C 0,0 C 75 % 81 % 0 % 1019,4 hPa 0,0 l/m 5,1 km/h (1 Bft) N-NO 22 0 min 0,0 UV-I 10,3 C 14,6 C 4,0 km/h (1 Bft)
05.10.2014 18:35 14,7 C 25,4 C 13,9 C 14,6 C 14,4 C 0,0 C 75 % 81 % 0 % 1019,4 hPa 0,0 l/m 5,3 km/h (1 Bft) O-NO 67 0 min 0,0 UV-I 10,3 C 14,4 C 7,4 km/h (2 Bft)
05.10.2014 18:41 14,5 C 25,4 C 13,7 C 14,4 C 14,3 C 0,0 C 76 % 81 % 0 % 1019,4 hPa 0,0 l/m 4,8 km/h (1 Bft) N 0 0 min 0,0 UV-I 10,3 C 14,3 C 5,5 km/h (1 Bft)
05.10.2014 18:45 14,4 C 25,4 C 13,7 C 14,3 C 14,2 C 0,0 C 76 % 81 % 0 % 1019,4 hPa 0,0 l/m 4,8 km/h (1 Bft) O-NO 67 0 min 0,0 UV-I 10,2 C 14,2 C 5,1 km/h (1 Bft)
05.10.2014 18:50 14,3 C 25,4 C 13,5 C 14,2 C 14,0 C 0,0 C 77 % 82 % 0 % 1019,4 hPa 0,0 l/m 5,1 km/h (1 Bft) O-NO 67 0 min 0,0 UV-I 10,3 C 14,0 C 6,1 km/h (2 Bft)
05.10.2014 18:55 14,2 C 25,4 C 13,5 C 14,1 C 14,0 C 0,0 C 77 % 82 % 0 % 1019,4 hPa 0,0 l/m 5,5 km/h (1 Bft) O-NO 67 0 min 0,0 UV-I 10,2 C 14,0 C 6,4 km/h (2 Bft)
05.10.2014 19:00 14,2 C 25,4 C 13,3 C 14,1 C 13,8 C 0,0 C 78 % 82 % 0 % 1019,4 hPa 0,0 l/m 5,5 km/h (1 Bft) O-NO 67 0 min 0,0 UV-I 10,4 C 13,8 C 5,3 km/h (1 Bft)
05.10.2014 19:05 14,1 C 25,4 C 13,2 C 14,0 C 13,7 C 0,0 C 78 % 82 % 0 % 1019,4 hPa 0,0 l/m 5,1 km/h (1 Bft) NO 45 0 min 0,0 UV-I 10,3 C 13,7 C 5,6 km/h (1 Bft)
05.10.2014 19:10 14,0 C 25,4 C 13,2 C 13,9 C 13,6 C 0,0 C 79 % 83 % 0 % 1019,6 hPa 0,0 l/m 4,5 km/h (1 Bft) O-NO 67 0 min 0,0 UV-I 10,4 C 13,6 C 5,5 km/h (1 Bft)
05.10.2014 19:15 13,9 C 25,5 C 13,1 C 13,8 C 13,5 C 0,0 C 79 % 83 % 0 % 1019,6 hPa 0,0 l/m 4,2 km/h (1 Bft) NO 45 0 min 0,0 UV-I 10,3 C 13,5 C 3,7 km/h (1 Bft)
05.10.2014 19:20 13,9 C 25,5 C 13,1 C 13,7 C 13,4 C 0,0 C 79 % 84 % 0 % 1019,6 hPa 0,0 l/m 3,9 km/h (1 Bft) O-SO 112 0 min 0,0 UV-I 10,3 C 13,4 C 2,7 km/h (1 Bft)
05.10.2014 19:25 13,7 C 25,5 C 13,1 C 13,6 C 13,4 C 0,0 C 79 % 84 % 0 % 1019,6 hPa 0,0 l/m 3,7 km/h (1 Bft) O-NO 67 0 min 0,0 UV-I 10,1 C 13,4 C 3,7 km/h (1 Bft)
05.10.2014 19:30 13,7 C 25,5 C 13,1 C 13,6 C 13,4 C 0,0 C 80 % 84 % 0 % 1019,2 hPa 0,0 l/m 3,7 km/h (1 Bft) W 270 0 min 0,0 UV-I 10,3 C 13,4 C 3,1 km/h (1 Bft)
05.10.2014 19:35 13,7 C 25,5 C 13,1 C 13,6 C 13,4 C 0,0 C 80 % 84 % 0 % 1019,2 hPa 0,0 l/m 3,5 km/h (1 Bft) O-NO 67 0 min 0,0 UV-I 10,3 C 13,4 C 3,2 km/h (1 Bft)
05.10.2014 19:40 13,7 C 25,5 C 13,1 C 13,6 C 13,5 C 0,0 C 80 % 84 % 0 % 1019,2 hPa 0,0 l/m 3,9 km/h (1 Bft) O 90 0 min 0,0 UV-I 10,3 C 13,5 C 6,3 km/h (2 Bft)
05.10.2014 19:45 13,7 C 25,5 C 13,1 C 13,7 C 13,6 C 0,0 C 80 % 85 % 0 % 1019,2 hPa 0,0 l/m 4,0 km/h (1 Bft) O-NO 67 0 min 0,0 UV-I 10,3 C 13,6 C 4,8 km/h (1 Bft)
05.10.2014 19:50 13,7 C 25,5 C 13,1 C 13,7 C 13,6 C 0,0 C 80 % 85 % 0 % 1019,2 hPa 0,0 l/m 3,9 km/h (1 Bft) O-NO 67 0 min 0,0 UV-I 10,3 C 13,6 C 6,1 km/h (2 Bft)
05.10.2014 19:55 13,7 C 25,5 C 13,1 C 13,7 C 13,7 C 0,0 C 80 % 85 % 0 % 1019,2 hPa 0,0 l/m 3,7 km/h (1 Bft) O-NO 67 0 min 0,0 UV-I 10,3 C 13,7 C 5,1 km/h (1 Bft)
05.10.2014 20:00 13,7 C 25,5 C 13,0 C 13,7 C 13,7 C 0,0 C 80 % 85 % 0 % 1019,2 hPa 0,0 l/m 3,5 km/h (1 Bft) O-NO 67 0 min 0,0 UV-I 10,3 C 13,7 C 3,7 km/h (1 Bft)
05.10.2014 20:05 13,7 C 25,5 C 13,1 C 13,7 C 13,7 C 0,0 C 80 % 85 % 0 % 1019,2 hPa 0,0 l/m 3,4 km/h (1 Bft) O-NO 67 0 min 0,0 UV-I 10,3 C 13,7 C 3,7 km/h (1 Bft)
05.10.2014 20:10 13,7 C 25,5 C 13,1 C 13,7 C 13,7 C 0,0 C 80 % 85 % 0 % 1019,3 hPa 0,0 l/m 2,7 km/h (1 Bft) O-NO 67 0 min 0,0 UV-I 10,3 C 13,7 C 5,5 km/h (1 Bft)
05.10.2014 20:15 13,7 C 25,5 C 13,1 C 13,8 C 13,8 C 0,1 C 80 % 85 % 0 % 1019,3 hPa 0,0 l/m 2,9 km/h (1 Bft) NO 45 0 min 0,0 UV-I 10,3 C 13,8 C 4,7 km/h (1 Bft)
05.10.2014 20:20 13,8 C 25,5 C 13,1 C 13,8 C 13,8 C 0,0 C 80 % 85 % 0 % 1019,3 hPa 0,0 l/m 3,5 km/h (1 Bft) NO 45 0 min 0,0 UV-I 10,4 C 13,8 C 3,7 km/h (1 Bft)
05.10.2014 20:25 13,9 C 25,5 C 13,1 C 13,9 C 13,8 C 0,0 C 80 % 85 % 0 % 1019,3 hPa 0,0 l/m 3,2 km/h (1 Bft) O-NO 67 0 min 0,0 UV-I 10,5 C 13,8 C 2,7 km/h (1 Bft)
05.10.2014 20:30 13,9 C 25,5 C 13,1 C 13,9 C 13,8 C 0,0 C 80 % 85 % 0 % 1019,3 hPa 0,0 l/m 2,9 km/h (1 Bft) O-NO 67 0 min 0,0 UV-I 10,5 C 13,8 C 2,6 km/h (1 Bft)
05.10.2014 20:35 13,9 C 25,5 C 13,1 C 13,9 C 13,8 C 0,0 C 79 % 84 % 0 % 1019,3 hPa 0,0 l/m 3,1 km/h (1 Bft) O-SO 112 0 min 0,0 UV-I 10,3 C 13,8 C 5,1 km/h (1 Bft)
05.10.2014 20:40 13,8 C 25,5 C 13,1 C 13,8 C 13,8 C 0,0 C 79 % 85 % 0 % 1019,3 hPa 0,0 l/m 1,9 km/h (1 Bft) O-NO 67 0 min 0,0 UV-I 10,2 C 13,8 C 0,0 km/h (0 Bft)
05.10.2014 20:45 13,7 C 25,5 C 13,0 C 13,7 C 13,6 C 0,0 C 80 % 85 % 0 % 1019,3 hPa 0,0 l/m 0,8 km/h (0 Bft) SW 225 0 min 0,0 UV-I 10,3 C 13,6 C 0,0 km/h (0 Bft)
05.10.2014 20:50 13,6 C 25,5 C 13,1 C 13,6 C 13,6 C 0,0 C 80 % 85 % 0 % 1019,4 hPa 0,0 l/m 0,5 km/h (0 Bft) N-NO 22 0 min 0,0 UV-I 10,2 C 13,6 C 0,0 km/h (0 Bft)
05.10.2014 20:55 13,6 C 25,5 C 13,0 C 13,6 C 13,6 C 0,0 C 80 % 85 % 0 % 1019,4 hPa 0,0 l/m 1,1 km/h (1 Bft) O-NO 67 0 min 0,0 UV-I 10,2 C 13,6 C 3,2 km/h (1 Bft)
05.10.2014 21:00 13,6 C 25,5 C 13,1 C 13,6 C 13,6 C 0,0 C 80 % 85 % 0 % 1019,4 hPa 0,0 l/m 1,4 km/h (1 Bft) O 90 0 min 0,0 UV-I 10,2 C 13,6 C 0,0 km/h (0 Bft)
05.10.2014 21:05 13,6 C 25,5 C 13,0 C 13,6 C 13,6 C 0,0 C 80 % 84 % 0 % 1019,4 hPa 0,0 l/m 1,3 km/h (1 Bft) O 90 0 min 0,0 UV-I 10,2 C 13,6 C 2,3 km/h (1 Bft)
05.10.2014 21:10 13,6 C 25,5 C 13,1 C 13,6 C 13,6 C 0,0 C 80 % 85 % 0 % 1019,5 hPa 0,0 l/m 1,3 km/h (1 Bft) O-NO 67 0 min 0,0 UV-I 10,2 C 13,6 C 3,1 km/h (1 Bft)
05.10.2014 21:15 13,6 C 25,6 C 13,1 C 13,6 C 13,6 C 0,0 C 80 % 85 % 0 % 1019,5 hPa 0,0 l/m 1,1 km/h (1 Bft) O-NO 67 0 min 0,0 UV-I 10,2 C 13,6 C 0,0 km/h (0 Bft)
05.10.2014 21:20 13,7 C 25,6 C 13,0 C 13,6 C 13,5 C 0,0 C 80 % 85 % 0 % 1019,5 hPa 0,0 l/m 0,5 km/h (0 Bft) NO 45 0 min 0,0 UV-I 10,3 C 13,5 C 3,4 km/h (1 Bft)
05.10.2014 21:25 13,6 C 25,6 C 12,9 C 13,5 C 13,4 C 0,0 C 80 % 85 % 0 % 1019,5 hPa 0,0 l/m 1,0 km/h (0 Bft) O 90 0 min 0,0 UV-I 10,2 C 13,4 C 1,9 km/h (1 Bft)
05.10.2014 21:30 13,5 C 25,6 C 12,9 C 13,5 C 13,4 C 0,0 C 80 % 85 % 0 % 1019,4 hPa 0,0 l/m 2,1 km/h (1 Bft) O 90 0 min 0,0 UV-I 10,1 C 13,4 C 4,2 km/h (1 Bft)
05.10.2014 21:35 13,5 C 25,7 C 12,9 C 13,5 C 13,4 C 0,0 C 80 % 85 % 0 % 1019,4 hPa 0,0 l/m 2,1 km/h (1 Bft) O-NO 67 0 min 0,0 UV-I 10,1 C 13,4 C 0,0 km/h (0 Bft)
05.10.2014 21:41 13,5 C 25,6 C 12,9 C 13,5 C 13,4 C 0,0 C 80 % 85 % 0 % 1019,4 hPa 0,0 l/m 2,6 km/h (1 Bft) N 0 0 min 0,0 UV-I 10,1 C 13,4 C 4,8 km/h (1 Bft)
05.10.2014 21:45 13,4 C 25,7 C 12,8 C 13,4 C 13,4 C 0,0 C 80 % 85 % 0 % 1019,4 hPa 0,0 l/m 2,7 km/h (1 Bft) NO 45 0 min 0,0 UV-I 10,0 C 13,4 C 3,9 km/h (1 Bft)
05.10.2014 21:50 13,5 C 25,7 C 12,9 C 13,4 C 13,3 C 0,0 C 80 % 85 % 0 % 1019,4 hPa 0,0 l/m 3,1 km/h (1 Bft) O-NO 67 0 min 0,0 UV-I 10,1 C 13,3 C 3,5 km/h (1 Bft)
05.10.2014 21:55 13,5 C 25,7 C 12,8 C 13,4 C 13,3 C 0,0 C 80 % 85 % 0 % 1019,4 hPa 0,0 l/m 3,1 km/h (1 Bft) O-NO 67 0 min 0,0 UV-I 10,1 C 13,3 C 2,9 km/h (1 Bft)
05.10.2014 22:00 13,4 C 25,7 C 12,6 C 13,3 C 13,2 C 0,0 C 80 % 85 % 0 % 1019,4 hPa 0,0 l/m 2,3 km/h (1 Bft) O 90 0 min 0,0 UV-I 10,0 C 13,2 C 1,9 km/h (1 Bft)
05.10.2014 22:05 13,2 C 25,7 C 12,6 C 13,1 C 13,0 C 0,0 C 80 % 85 % 0 % 1019,4 hPa 0,0 l/m 1,9 km/h (1 Bft) O 90 0 min 0,0 UV-I 9,8 C 13,0 C 3,2 km/h (1 Bft)
05.10.2014 22:10 13,1 C 25,7 C 12,5 C 13,0 C 12,8 C 0,0 C 81 % 85 % 0 % 1019,6 hPa 0,0 l/m 2,7 km/h (1 Bft) O-NO 67 0 min 0,0 UV-I 9,9 C 12,8 C 3,4 km/h (1 Bft)
05.10.2014 22:15 13,1 C 25,7 C 12,5 C 13,0 C 12,8 C 0,0 C 81 % 85 % 0 % 1019,6 hPa 0,0 l/m 3,2 km/h (1 Bft) O-NO 67 0 min 0,0 UV-I 9,9 C 12,8 C 7,1 km/h (2 Bft)
05.10.2014 22:20 13,1 C 25,7 C 12,4 C 13,0 C 12,8 C 0,0 C 81 % 85 % 0 % 1019,6 hPa 0,0 l/m 3,1 km/h (1 Bft) O 90 0 min 0,0 UV-I 9,9 C 12,8 C 6,3 km/h (2 Bft)
05.10.2014 22:25 13,1 C 25,7 C 12,4 C 13,0 C 12,8 C 0,0 C 81 % 85 % 0 % 1019,6 hPa 0,0 l/m 3,4 km/h (1 Bft) O 90 0 min 0,0 UV-I 9,9 C 12,8 C 4,2 km/h (1 Bft)
05.10.2014 22:30 13,2 C 25,7 C 12,5 C 13,1 C 12,8 C 0,0 C 81 % 85 % 0 % 1019,3 hPa 0,0 l/m 4,2 km/h (1 Bft) O-SO 112 0 min 0,0 UV-I 10,0 C 12,8 C 5,1 km/h (1 Bft)
05.10.2014 22:35 13,2 C 25,7 C 12,3 C 13,1 C 12,8 C 0,0 C 81 % 85 % 0 % 1019,3 hPa 0,0 l/m 3,9 km/h (1 Bft) O-NO 67 0 min 0,0 UV-I 10,0 C 12,8 C 2,9 km/h (1 Bft)
05.10.2014 22:40 13,1 C 25,7 C 12,2 C 13,0 C 12,7 C 0,0 C 81 % 85 % 0 % 1019,3 hPa 0,0 l/m 4,2 km/h (1 Bft) O-NO 67 0 min 0,0 UV-I 9,9 C 12,7 C 4,5 km/h (1 Bft)
05.10.2014 22:45 13,1 C 25,7 C 12,2 C 13,0 C 12,7 C 0,0 C 81 % 86 % 0 % 1019,3 hPa 0,0 l/m 4,5 km/h (1 Bft) O-NO 67 0 min 0,0 UV-I 9,9 C 12,7 C 4,8 km/h (1 Bft)
05.10.2014 22:50 13,1 C 25,7 C 12,3 C 13,0 C 12,8 C 0,0 C 81 % 86 % 0 % 1019,5 hPa 0,0 l/m 4,3 km/h (1 Bft) O-NO 67 0 min 0,0 UV-I 9,9 C 12,8 C 5,0 km/h (1 Bft)
05.10.2014 22:55 13,1 C 25,7 C 12,3 C 13,0 C 12,8 C 0,0 C 81 % 86 % 0 % 1019,5 hPa 0,0 l/m 3,4 km/h (1 Bft) N-NW 337 0 min 0,0 UV-I 9,9 C 12,8 C 2,4 km/h (1 Bft)
05.10.2014 23:00 13,0 C 25,7 C 12,3 C 12,9 C 12,7 C 0,0 C 81 % 86 % 0 % 1019,5 hPa 0,0 l/m 2,7 km/h (1 Bft) O-SO 112 0 min 0,0 UV-I 9,8 C 12,7 C 5,1 km/h (1 Bft)
05.10.2014 23:05 13,1 C 25,7 C 12,5 C 13,0 C 12,9 C 0,0 C 82 % 86 % 0 % 1019,5 hPa 0,0 l/m 3,7 km/h (1 Bft) NO 45 0 min 0,0 UV-I 10,1 C 12,9 C 7,1 km/h (2 Bft)
05.10.2014 23:10 13,2 C 25,6 C 12,6 C 13,2 C 13,2 C 0,0 C 81 % 86 % 0 % 1019,2 hPa 0,0 l/m 5,5 km/h (1 Bft) O 90 0 min 0,0 UV-I 10,0 C 13,2 C 7,2 km/h (2 Bft)
05.10.2014 23:15 13,3 C 25,7 C 12,7 C 13,3 C 13,3 C 0,0 C 81 % 86 % 0 % 1019,2 hPa 0,0 l/m 5,1 km/h (1 Bft) O-NO 67 0 min 0,0 UV-I 10,1 C 13,3 C 6,1 km/h (2 Bft)
05.10.2014 23:20 13,3 C 25,7 C 12,6 C 13,4 C 13,4 C 0,1 C 81 % 86 % 0 % 1019,2 hPa 0,0 l/m 4,2 km/h (1 Bft) O-NO 67 0 min 0,0 UV-I 10,1 C 13,4 C 6,0 km/h (2 Bft)
05.10.2014 23:25 13,3 C 25,7 C 12,7 C 13,4 C 13,4 C 0,1 C 81 % 85 % 0 % 1019,2 hPa 0,0 l/m 4,3 km/h (1 Bft) O-NO 67 0 min 0,0 UV-I 10,1 C 13,4 C 4,3 km/h (1 Bft)
05.10.2014 23:30 13,4 C 25,7 C 12,7 C 13,4 C 13,4 C 0,0 C 80 % 85 % 0 % 1019,8 hPa 0,0 l/m 3,9 km/h (1 Bft) O-SO 112 0 min 0,0 UV-I 10,0 C 13,4 C 3,9 km/h (1 Bft)
05.10.2014 23:35 13,5 C 25,7 C 12,7 C 13,5 C 13,4 C 0,0 C 80 % 85 % 0 % 1019,8 hPa 0,0 l/m 3,9 km/h (1 Bft) O-NO 67 0 min 0,0 UV-I 10,1 C 13,4 C 3,9 km/h (1 Bft)
05.10.2014 23:40 13,5 C 25,7 C 12,7 C 13,5 C 13,5 C 0,0 C 80 % 85 % 0 % 1019,8 hPa 0,0 l/m 3,9 km/h (1 Bft) O-NO 67 0 min 0,0 UV-I 10,1 C 13,5 C 6,3 km/h (2 Bft)
05.10.2014 23:45 13,4 C 25,7 C 12,7 C 13,5 C 13,5 C 0,1 C 80 % 85 % 0 % 1019,8 hPa 0,0 l/m 4,0 km/h (1 Bft) NO 45 0 min 0,0 UV-I 10,0 C 13,5 C 4,7 km/h (1 Bft)
05.10.2014 23:50 13,5 C 25,7 C 12,8 C 13,6 C 13,6 C 0,1 C 80 % 85 % 0 % 1019,1 hPa 0,0 l/m 3,7 km/h (1 Bft) O-NO 67 0 min 0,0 UV-I 10,1 C 13,6 C 3,9 km/h (1 Bft)
05.10.2014 23:55 13,5 C 25,7 C 12,8 C 13,6 C 13,6 C 0,1 C 80 % 85 % 0 % 1019,1 hPa 0,0 l/m 3,4 km/h (1 Bft) O-NO 67 0 min 0,0 UV-I 10,1 C 13,6 C 3,4 km/h (1 Bft)
_ Min-Zeit 07:45 17:25 07:35 06:50 06:50 00:00 15:10 15:35 00:00 23:50 - 00:00 - - - 00:00 07:45 06:50 00:00
Minimum _ 2,9 C 16,6 C 4,8 C 3,2 C 3,2 C 0,0 C 64 % 70 % 0 % 1019,1 hPa - 0,0 km/h (0 Bft) - - - 0,0 UV-I 1,4 C 3,2 C 0,0 km/h (0 Bft)
_ Max-Zeit 15:30 10:01 15:30 13:20 13:20 13:20 10:06 04:30 12:50 09:10 00:00 15:20 - - 12:41 00:00 11:06 13:20 15:00
Maximum _ 16,9 C 27,8 C 17,1 C 22,1 C 22,1 C 5,7 C 93 % 91 % 100 % 1021,7 hPa 0,0 l/m 6,8 km/h
O-NO (2 Bft)
- - 6 min 0,0 UV-I 11,2 C 22,1 C 16,6 km/h
NO (3 Bft)
Durchschnitt _ 10,3 C 25,5 C 10,7 C 11,2 C 11,2 C 0,9 C 82 % 85 % 23 % 1020,3 hPa #0,0 l/m 2,3 km/h (1 Bft) O-NO - #2:40 h 0,0 UV-I 7,2 C 11,2 C 2,9 km/h (1 Bft)
2014 www.wetterstation-wechselburg.de